^^
Saratoga-Weather Station Historical Data
Daily Summary for November 30, 2020 Units:  English    Metric   Both
Daily Weekly Monthly Yearly Custom
  High: Low: Average:
Temperature: 35.2 °F 22.8 °F 27.9 °F
Dew Point: 30.9 °F 21.6 °F 25.9 °F
Humidity: 96% 83% 92%
Wind Speed: 6mph 0mph 0.4mph
Wind Gust: 8mph - -
Wind- - SW
Pressure: 30.4 in 30.3 in -
Precipitation: 0 in    
Historical Graphs
 
 
Tabular Data for November 30, 2020
Time Temperature Dew Point Pressure Wind Wind Speed Wind Gust Humidity Rainfall Rate (Hourly) solar
00:03 26.8 °F 25 °F 30.3 in Calm     93% 0 in 0 W/m2
00:08 26.6 °F 24.8 °F 30.3 in Calm     93% 0 in 0 W/m2
00:13 26.4 °F 24.6 °F 30.3 in Calm     93% 0 in 0 W/m2
00:18 26.4 °F 24.6 °F 30.3 in Calm     93% 0 in 0 W/m2
00:23 26.4 °F 25 °F 30.3 in Calm     94% 0 in 0 W/m2
00:28 26.4 °F 25 °F 30.3 in Calm     94% 0 in 0 W/m2
00:33 26.4 °F 25 °F 30.3 in Calm     94% 0 in 0 W/m2
00:38 26.4 °F 25 °F 30.3 in Calm     94% 0 in 0 W/m2
00:44 26.4 °F 25 °F 30.3 in Calm     94% 0 in 0 W/m2
00:49 26.2 °F 24.8 °F 30.3 in Calm     94% 0 in 0 W/m2
00:54 26.2 °F 24.8 °F 30.3 in Calm     94% 0 in 0 W/m2
00:59 26.2 °F 24.8 °F 30.3 in Calm     94% 0 in 0 W/m2
01:04 26.1 °F 24.6 °F 30.3 in Calm     94% 0 in 0 W/m2
01:09 26.1 °F 24.6 °F 30.3 in Calm     94% 0 in 0 W/m2
01:14 26.1 °F 24.6 °F 30.3 in Calm     94% 0 in 0 W/m2
01:19 26.1 °F 24.6 °F 30.3 in Calm     94% 0 in 0 W/m2
01:24 26.1 °F 24.6 °F 30.3 in Calm     94% 0 in 0 W/m2
01:29 26.1 °F 24.6 °F 30.3 in Calm     94% 0 in 0 W/m2
01:34 26.1 °F 24.6 °F 30.3 in Calm     94% 0 in 0 W/m2
01:39 26.1 °F 24.6 °F 30.3 in Calm     94% 0 in 0 W/m2
01:44 26.1 °F 24.6 °F 30.3 in Calm     94% 0 in 0 W/m2
01:49 26.1 °F 24.6 °F 30.3 in Calm     94% 0 in 0 W/m2
01:54 26.1 °F 24.6 °F 30.3 in Calm     94% 0 in 0 W/m2
01:59 26.1 °F 24.6 °F 30.3 in Calm     94% 0 in 0 W/m2
02:04 25.9 °F 24.4 °F 30.3 in Calm   1 mph 94% 0 in 0 W/m2
02:09 25.9 °F 24.4 °F 30.3 in Calm     94% 0 in 0 W/m2
02:14 25.7 °F 24.3 °F 30.3 in SE 0.9 mph 1 mph 94% 0 in 0 W/m2
02:19 25.5 °F 24.1 °F 30.3 in Calm   1 mph 94% 0 in 0 W/m2
02:24 25.7 °F 24.4 °F 30.3 in SE 0.9 mph 1 mph 95% 0 in 0 W/m2
02:29 25.9 °F 24.6 °F 30.3 in Calm   1 mph 95% 0 in 0 W/m2
02:34 25.9 °F 24.6 °F 30.3 in Calm     95% 0 in 0 W/m2
02:39 25.9 °F 24.6 °F 30.3 in Calm     95% 0 in 0 W/m2
02:44 25.9 °F 24.6 °F 30.3 in SE 0.9 mph 1 mph 95% 0 in 0 W/m2
02:49 25.9 °F 24.6 °F 30.3 in Calm     95% 0 in 0 W/m2
02:54 25.5 °F 24.1 °F 30.3 in Calm     94% 0 in 0 W/m2
02:59 25.5 °F 24.1 °F 30.3 in Calm     94% 0 in 0 W/m2
03:04 25.5 °F 24.1 °F 30.3 in Calm     94% 0 in 0 W/m2
03:09 25.3 °F 23.9 °F 30.3 in Calm     94% 0 in 0 W/m2
03:14 25.2 °F 23.7 °F 30.3 in Calm     94% 0 in 0 W/m2
03:19 25.2 °F 23.7 °F 30.3 in Calm     94% 0 in 0 W/m2
03:24 25.2 °F 23.7 °F 30.3 in Calm     94% 0 in 0 W/m2
03:29 25.2 °F 23.9 °F 30.3 in SE 0.9 mph 1 mph 95% 0 in 0 W/m2
03:34 25.2 °F 23.9 °F 30.3 in Calm     95% 0 in 0 W/m2
03:39 25 °F 23.5 °F 30.3 in Calm   2 mph 94% 0 in 0 W/m2
03:44 25 °F 23.5 °F 30.3 in Calm     94% 0 in 0 W/m2
03:49 25 °F 23.5 °F 30.3 in Calm   2 mph 94% 0 in 0 W/m2
03:54 25 °F 23.5 °F 30.3 in Calm     94% 0 in 0 W/m2
03:59 25.2 °F 23.9 °F 30.3 in Calm   2 mph 95% 0 in 0 W/m2
04:04 25.2 °F 23.9 °F 30.3 in SE 0.9 mph 1 mph 95% 0 in 0 W/m2
04:09 25.2 °F 23.9 °F 30.3 in SE 2 mph 2 mph 95% 0 in 0 W/m2
04:14 25.3 °F 24.1 °F 30.3 in Calm   1 mph 95% 0 in 0 W/m2
04:19 25.3 °F 24.1 °F 30.3 in Calm     95% 0 in 0 W/m2
04:24 25.3 °F 24.1 °F 30.3 in Calm     95% 0 in 0 W/m2
04:29 25.3 °F 24.1 °F 30.3 in Calm     95% 0 in 0 W/m2
04:34 25.2 °F 23.9 °F 30.3 in Calm     95% 0 in 0 W/m2
04:39 25 °F 23.7 °F 30.3 in Calm   1 mph 95% 0 in 0 W/m2
04:44 25 °F 23.5 °F 30.3 in Calm     94% 0 in 0 W/m2
04:49 24.8 °F 23.4 °F 30.3 in Calm     94% 0 in 0 W/m2
04:54 24.6 °F 23.4 °F 30.3 in Calm     95% 0 in 0 W/m2
04:59 24.4 °F 23 °F 30.3 in Calm     94% 0 in 0 W/m2
05:04 24.4 °F 23 °F 30.3 in Calm     94% 0 in 0 W/m2
05:09 24.4 °F 23 °F 30.3 in Calm     94% 0 in 0 W/m2
05:14 24.4 °F 23.2 °F 30.3 in Calm     95% 0 in 0 W/m2
05:19 24.6 °F 23.4 °F 30.3 in Calm     95% 0 in 0 W/m2
05:24 24.6 °F 23.4 °F 30.3 in Calm     95% 0 in 0 W/m2
05:29 24.4 °F 23.2 °F 30.3 in Calm     95% 0 in 0 W/m2
05:34 24.4 °F 23.2 °F 30.3 in Calm     95% 0 in 0 W/m2
05:39 24.3 °F 22.8 °F 30.3 in Calm     94% 0 in 0 W/m2
05:44 24.3 °F 22.8 °F 30.3 in Calm     94% 0 in 0 W/m2
05:49 24.1 °F 22.8 °F 30.3 in Calm     95% 0 in 0 W/m2
05:54 23.9 °F 22.6 °F 30.3 in Calm     95% 0 in 0 W/m2
05:59 23.7 °F 22.3 °F 30.3 in Calm     94% 0 in 0 W/m2
06:04 23.7 °F 22.5 °F 30.3 in Calm     95% 0 in 0 W/m2
06:09 23.7 °F 22.5 °F 30.3 in Calm     95% 0 in 0 W/m2
06:14 23.7 °F 22.5 °F 30.3 in Calm     95% 0 in 0 W/m2
06:19 23.7 °F 22.5 °F 30.3 in Calm     95% 0 in 0 W/m2
06:24 23.5 °F 22.3 °F 30.3 in Calm     95% 0 in 0 W/m2
06:29 23.5 °F 22.3 °F 30.3 in Calm     95% 0 in 0 W/m2
06:34 23.5 °F 22.3 °F 30.3 in Calm     95% 0 in 0 W/m2
06:39 23.5 °F 22.3 °F 30.3 in Calm     95% 0 in 0 W/m2
06:44 23.5 °F 22.3 °F 30.3 in Calm     95% 0 in 0 W/m2
06:49 23.4 °F 22.1 °F 30.3 in Calm     95% 0 in 0 W/m2
06:54 23.4 °F 22.1 °F 30.3 in Calm     95% 0 in 0 W/m2
06:59 23.2 °F 21.9 °F 30.3 in Calm     95% 0 in 0 W/m2
07:04 23.2 °F 21.9 °F 30.3 in Calm     95% 0 in 0 W/m2
07:09 23.2 °F 21.9 °F 30.3 in Calm     95% 0 in 0 W/m2
07:14 23.2 °F 21.9 °F 30.3 in Calm     95% 0 in 0 W/m2
07:19 23.2 °F 21.9 °F 30.3 in Calm     95% 0 in 0 W/m2
07:24 23 °F 21.7 °F 30.3 in Calm     95% 0 in 0 W/m2
07:29 22.8 °F 21.6 °F 30.3 in Calm     95% 0 in 0 W/m2
07:34 22.8 °F 21.6 °F 30.3 in Calm     95% 0 in 0 W/m2
07:39 22.8 °F 21.6 °F 30.3 in Calm     95% 0 in 0 W/m2
07:44 23 °F 21.7 °F 30.3 in Calm     95% 0 in 0 W/m2
07:49 23 °F 21.7 °F 30.3 in Calm   1 mph 95% 0 in 0 W/m2
07:54 23.2 °F 21.9 °F 30.3 in Calm   1 mph 95% 0 in 0 W/m2
07:59 23.2 °F 21.9 °F 30.3 in Calm     95% 0 in 0 W/m2
08:04 23.2 °F 21.9 °F 30.3 in Calm   1 mph 95% 0 in 0 W/m2
08:09 23.2 °F 21.9 °F 30.3 in Calm     95% 0 in 0 W/m2
08:14 23 °F 21.7 °F 30.3 in Calm     95% 0 in 5 W/m2
08:19 23 °F 21.7 °F 30.3 in Calm     95% 0 in 7 W/m2
08:24 23 °F 21.7 °F 30.3 in Calm     95% 0 in 9 W/m2
08:29 23 °F 21.7 °F 30.3 in Calm     95% 0 in 11 W/m2
08:34 23 °F 21.7 °F 30.3 in Calm     95% 0 in 12 W/m2
08:40 23.2 °F 21.9 °F 30.3 in Calm   1 mph 95% 0 in 14 W/m2
08:45 23.2 °F 21.9 °F 30.3 in SE 0.9 mph 2 mph 95% 0 in 14 W/m2
08:50 23.4 °F 22.1 °F 30.3 in Calm   1 mph 95% 0 in 16 W/m2
08:55 23.5 °F 22.3 °F 30.3 in WSW 0.9 mph 2 mph 95% 0 in 19 W/m2
09:00 23.5 °F 22.3 °F 30.3 in Calm   1 mph 95% 0 in 19 W/m2
09:05 23.7 °F 22.5 °F 30.3 in Calm     95% 0 in 21 W/m2
09:10 23.7 °F 22.5 °F 30.3 in Calm     95% 0 in 21 W/m2
09:15 23.7 °F 22.5 °F 30.3 in Calm     95% 0 in 23 W/m2
09:20 23.7 °F 22.5 °F 30.4 in Calm     95% 0 in 25 W/m2
09:25 23.9 °F 22.6 °F 30.3 in Calm     95% 0 in 25 W/m2
09:30 24.1 °F 22.8 °F 30.3 in Calm     95% 0 in 25 W/m2
09:35 24.3 °F 23 °F 30.3 in Calm     95% 0 in 26 W/m2
09:40 24.3 °F 23 °F 30.4 in Calm     95% 0 in 26 W/m2
09:45 24.4 °F 23.5 °F 30.4 in Calm     96% 0 in 28 W/m2
09:50 24.6 °F 23.7 °F 30.4 in Calm     96% 0 in 28 W/m2
09:55 24.8 °F 23.5 °F 30.4 in Calm     95% 0 in 30 W/m2
10:00 25 °F 23.7 °F 30.4 in Calm     95% 0 in 30 W/m2
10:05 25.2 °F 23.9 °F 30.3 in Calm   1 mph 95% 0 in 28 W/m2
10:10 25.5 °F 24.6 °F 30.4 in Calm   1 mph 96% 0 in 30 W/m2
10:15 26.1 °F 25.2 °F 30.4 in Calm     96% 0 in 32 W/m2
10:20 26.2 °F 25.3 °F 30.4 in Calm     96% 0 in 32 W/m2
10:25 26.2 °F 25.3 °F 30.4 in Calm     96% 0 in 33 W/m2
10:30 26.4 °F 25.5 °F 30.4 in Calm     96% 0 in 35 W/m2
10:35 26.6 °F 25.7 °F 30.4 in Calm     96% 0 in 33 W/m2
10:40 26.8 °F 25.5 °F 30.4 in Calm     95% 0 in 33 W/m2
10:45 26.8 °F 25.9 °F 30.4 in Calm     96% 0 in 33 W/m2
10:50 27 °F 26.1 °F 30.4 in Calm     96% 0 in 35 W/m2
10:55 27.1 °F 25.9 °F 30.4 in Calm     95% 0 in 33 W/m2
11:00 27.3 °F 26.1 °F 30.3 in ESE 0.9 mph 2 mph 95% 0 in 35 W/m2
11:05 27.7 °F 26.6 °F 30.3 in ESE 0.9 mph 2 mph 96% 0 in 33 W/m2
11:10 28.2 °F 27.1 °F 30.3 in ENE 2 mph 3 mph 96% 0 in 35 W/m2
11:15 28.6 °F 27.5 °F 30.3 in ENE 2 mph 2 mph 96% 0 in 35 W/m2
11:20 28.8 °F 27.5 °F 30.3 in East 0.9 mph 1 mph 95% 0 in 37 W/m2
11:25 28.9 °F 27.7 °F 30.3 in East 0.9 mph 1 mph 95% 0 in 37 W/m2
11:30 29.1 °F 27.9 °F 30.3 in Calm     95% 0 in 39 W/m2
11:35 29.3 °F 28 °F 30.3 in Calm     95% 0 in 37 W/m2
11:40 29.5 °F 28.2 °F 30.3 in Calm   1 mph 95% 0 in 37 W/m2
11:45 29.7 °F 28.2 °F 30.3 in Calm   1 mph 94% 0 in 39 W/m2
11:50 29.8 °F 28.4 °F 30.3 in East 0.9 mph 3 mph 94% 0 in 37 W/m2
11:55 30.2 °F 28.9 °F 30.3 in Calm   1 mph 95% 0 in 39 W/m2
12:00 30.6 °F 29.1 °F 30.3 in Calm   2 mph 94% 0 in 40 W/m2
12:05 30.6 °F 29.1 °F 30.3 in Calm   1 mph 94% 0 in 39 W/m2
12:10 30.7 °F 29.3 °F 30.3 in Calm   2 mph 94% 0 in 37 W/m2
12:15 30.7 °F 28.9 °F 30.3 in Calm     93% 0 in 37 W/m2
12:20 30.9 °F 29.1 °F 30.3 in Calm     93% 0 in 35 W/m2
12:25 31.1 °F 29.3 °F 30.3 in Calm   2 mph 93% 0 in 35 W/m2
12:30 31.3 °F 29.5 °F 30.3 in Calm   1 mph 93% 0 in 35 W/m2
12:35 31.5 °F 29.7 °F 30.3 in Calm     93% 0 in 35 W/m2
12:40 31.8 °F 30 °F 30.3 in Calm   2 mph 93% 0 in 37 W/m2
12:45 32 °F 30.2 °F 30.3 in Calm   1 mph 93% 0 in 37 W/m2
12:50 32.2 °F 30.4 °F 30.3 in Calm   2 mph 93% 0 in 37 W/m2
12:55 32.4 °F 30.4 °F 30.3 in West 0.9 mph 3 mph 92% 0 in 39 W/m2
13:00 32.7 °F 30.7 °F 30.3 in West 0.9 mph 1 mph 92% 0 in 37 W/m2
13:05 32.9 °F 30.6 °F 30.3 in West 0.9 mph 4 mph 91% 0 in 40 W/m2
13:10 33.3 °F 30.6 °F 30.3 in WNW 0.9 mph 4 mph 90% 0 in 51 W/m2
13:15 33.6 °F 30.4 °F 30.3 in SW 2.9 mph 8 mph 88% 0 in 63 W/m2
13:20 34 °F 30.6 °F 30.3 in SW 2.9 mph 6 mph 87% 0 in 72 W/m2
13:25 34.2 °F 30.4 °F 30.3 in West 6 mph 6 mph 86% 0 in 56 W/m2
13:30 34.3 °F 30.4 °F 30.3 in WNW 0.9 mph 4 mph 85% 0 in 49 W/m2
13:35 34.5 °F 30.6 °F 30.3 in West 2.9 mph 4 mph 85% 0 in 53 W/m2
13:40 34.5 °F 30.6 °F 30.3 in WNW 0.9 mph 2 mph 85% 0 in 76 W/m2
13:45 34.7 °F 30.4 °F 30.3 in Calm   7 mph 84% 0 in 70 W/m2
13:50 34.9 °F 30.6 °F 30.3 in WSW 0.9 mph 4 mph 84% 0 in 40 W/m2
13:55 35.1 °F 30.4 °F 30.3 in West 2.9 mph 7 mph 83% 0 in 33 W/m2
14:00 35.1 °F 30.4 °F 30.3 in West 2 mph 4 mph 83% 0 in 35 W/m2
14:05 34.9 °F 30.2 °F 30.3 in WNW 2.9 mph 6 mph 83% 0 in 35 W/m2
14:10 34.9 °F 30.6 °F 30.3 in West 2 mph 6 mph 84% 0 in 35 W/m2
14:15 34.9 °F 30.6 °F 30.3 in West 0.9 mph 3 mph 84% 0 in 35 W/m2
14:20 34.9 °F 30.6 °F 30.3 in WNW 2 mph 4 mph 84% 0 in 35 W/m2
14:25 34.9 °F 30.6 °F 30.3 in West 2 mph 4 mph 84% 0 in 37 W/m2
14:30 34.9 °F 30.6 °F 30.3 in WNW 2 mph 2 mph 84% 0 in 37 W/m2
14:35 34.9 °F 30.6 °F 30.3 in Calm   2 mph 84% 0 in 33 W/m2
14:40 34.9 °F 30.6 °F 30.3 in WNW 2.9 mph 3 mph 84% 0 in 46 W/m2
14:45 34.9 °F 30.6 °F 30.3 in Calm   2 mph 84% 0 in 69 W/m2
14:50 35.1 °F 30.7 °F 30.3 in WNW 2 mph 4 mph 84% 0 in 67 W/m2
14:55 35.1 °F 30.7 °F 30.3 in NNW 0.9 mph 3 mph 84% 0 in 58 W/m2
15:00 35.2 °F 30.6 °F 30.3 in WNW 2.9 mph 7 mph 83% 0 in 32 W/m2
15:05 35.2 °F 30.6 °F 30.3 in West 0.9 mph 2 mph 83% 0 in 28 W/m2
15:10 35.1 °F 30.4 °F 30.3 in NW 4 mph 7 mph 83% 0 in 28 W/m2
15:15 35.1 °F 30.4 °F 30.3 in WNW 0.9 mph 3 mph 83% 0 in 28 W/m2
15:20 35.1 °F 30.4 °F 30.3 in NW 0.9 mph 6 mph 83% 0 in 28 W/m2
15:25 35.1 °F 30.7 °F 30.3 in WNW 0.9 mph 2 mph 84% 0 in 26 W/m2
15:30 34.9 °F 30.6 °F 30.3 in Calm   2 mph 84% 0 in 26 W/m2
15:35 34.7 °F 30.4 °F 30.3 in West 2.9 mph 4 mph 84% 0 in 33 W/m2
15:40 34.9 °F 30.9 °F 30.3 in Calm   1 mph 85% 0 in 39 W/m2
15:45 34.9 °F 30.6 °F 30.3 in WSW 2 mph 2 mph 84% 0 in 28 W/m2
15:50 34.9 °F 30.6 °F 30.3 in West 2.9 mph 4 mph 84% 0 in 33 W/m2
15:55 34.9 °F 30.9 °F 30.3 in WNW 0.9 mph 3 mph 85% 0 in 23 W/m2
16:00 34.9 °F 30.9 °F 30.3 in WSW 0.9 mph 4 mph 85% 0 in 19 W/m2
16:05 34.7 °F 30.7 °F 30.3 in Calm     85% 0 in 16 W/m2
16:10 34.5 °F 30.6 °F 30.3 in West 0.9 mph 2 mph 85% 0 in 14 W/m2
16:15 34.3 °F 30.6 °F 30.3 in Calm   1 mph 86% 0 in 12 W/m2
16:20 34.2 °F 30.4 °F 30.3 in West 0.9 mph 1 mph 86% 0 in 11 W/m2
16:25 34 °F 30.2 °F 30.3 in Calm     86% 0 in 9 W/m2
16:30 33.6 °F 29.8 °F 30.3 in NNW 0.9 mph 2 mph 86% 0 in 7 W/m2
16:35 33.4 °F 30 °F 30.3 in ENE 2 mph 3 mph 87% 0 in 5 W/m2
16:40 33.4 °F 30.2 °F 30.3 in ENE 2 mph 2 mph 88% 0 in 0 W/m2
16:45 33.3 °F 30 °F 30.3 in ENE 0.9 mph 3 mph 88% 0 in 0 W/m2
16:50 33.4 °F 30.2 °F 30.3 in Calm   1 mph 88% 0 in 0 W/m2
16:55 33.3 °F 30 °F 30.3 in Calm   2 mph 88% 0 in 0 W/m2
17:00 33.3 °F 30 °F 30.3 in Calm   1 mph 88% 0 in 0 W/m2
17:05 33.1 °F 29.8 °F 30.3 in Calm   2 mph 88% 0 in 0 W/m2
17:10 32.9 °F 29.7 °F 30.3 in Calm     88% 0 in 0 W/m2
17:15 32.9 °F 30 °F 30.3 in East 0.9 mph 1 mph 89% 0 in 0 W/m2
17:20 32.9 °F 30 °F 30.3 in East 0.9 mph 1 mph 89% 0 in 0 W/m2
17:25 32.9 °F 30 °F 30.3 in Calm   1 mph 89% 0 in 0 W/m2
17:30 33.1 °F 30.2 °F 30.3 in Calm   2 mph 89% 0 in 0 W/m2
17:35 32.9 °F 30 °F 30.3 in East 0.9 mph 2 mph 89% 0 in 0 W/m2
17:40 32.9 °F 30 °F 30.3 in Calm   1 mph 89% 0 in 0 W/m2
Juneau County Weather
Compliments of Weather Underground - 4 mb